createdAt,value
2022-09-04T00:00:12.509Z,89.20
2022-09-04T00:03:01.622Z,89.70
2022-09-04T00:05:35.332Z,89.33
2022-09-04T00:08:20.717Z,89.31
2022-09-04T00:10:56.874Z,89.97
2022-09-04T00:13:28.695Z,89.68
2022-09-04T00:16:05.227Z,89.84
2022-09-04T00:18:39.392Z,89.46
2022-09-04T00:21:16.540Z,89.43
2022-09-04T00:23:52.876Z,89.08
2022-09-04T00:26:30.374Z,89.18
2022-09-04T00:29:04.329Z,88.91
2022-09-04T00:31:38.858Z,88.92
2022-09-04T00:34:18.863Z,89.58
2022-09-04T00:36:51.413Z,89.98
2022-09-04T00:39:26.581Z,89.85
2022-09-04T00:42:06.626Z,90.28
2022-09-04T00:44:48.702Z,88.91
2022-09-04T00:47:48.715Z,88.84
2022-09-04T00:50:40.269Z,88.99
2022-09-04T00:53:27.271Z,89.02
2022-09-04T00:56:12.254Z,88.69
2022-09-04T00:58:53.897Z,88.96
2022-09-04T01:01:25.635Z,88.46
2022-09-04T01:04:38.282Z,88.23
2022-09-04T01:07:26.823Z,88.92
2022-09-04T01:10:19.408Z,88.52
2022-09-04T01:12:56.005Z,88.61
2022-09-04T01:15:30.989Z,88.24
2022-09-04T01:18:07.807Z,88.70
2022-09-04T01:20:53.067Z,88.89
2022-09-04T01:23:49.499Z,89.39
2022-09-04T01:26:26.388Z,88.45
2022-09-04T01:29:07.298Z,88.18
2022-09-04T01:31:45.424Z,88.83
2022-09-04T01:34:35.531Z,88.77
2022-09-04T01:37:15.850Z,88.91
2022-09-04T01:39:48.235Z,88.42
2022-09-04T01:42:24.314Z,88.37
2022-09-04T01:44:52.356Z,88.91
2022-09-04T01:47:26.698Z,88.76
2022-09-04T01:50:04.243Z,89.68
2022-09-04T01:52:42.587Z,88.85
2022-09-04T01:55:20.130Z,88.44
2022-09-04T01:58:03.439Z,89.22
2022-09-04T02:00:36.005Z,88.89
2022-09-04T02:03:22.477Z,89.31
2022-09-04T02:06:02.853Z,89.04
2022-09-04T02:08:44.296Z,89.14
2022-09-04T02:11:17.537Z,89.19
2022-09-04T02:14:04.388Z,89.02
2022-09-04T02:16:44.966Z,88.74
2022-09-04T02:19:25.046Z,88.71
2022-09-04T02:22:01.726Z,88.66
2022-09-04T02:24:40.432Z,88.52
2022-09-04T02:27:15.239Z,87.98
2022-09-04T02:29:53.159Z,87.87
2022-09-04T02:32:27.186Z,87.43
2022-09-04T02:35:02.855Z,87.36
2022-09-04T02:37:39.458Z,87.82
2022-09-04T02:40:18.918Z,87.74
2022-09-04T02:43:00.699Z,87.87
2022-09-04T02:45:38.595Z,87.11
2022-09-04T02:48:13.836Z,86.99
2022-09-04T02:50:57.681Z,87.38
2022-09-04T02:53:31.850Z,87.58
2022-09-04T02:56:16.082Z,87.37
2022-09-04T02:58:57.692Z,87.11
2022-09-04T03:01:33.917Z,87.30
2022-09-04T03:04:10.253Z,87.35
2022-09-04T03:06:53.315Z,87.63
2022-09-04T03:09:28.501Z,87.48
2022-09-04T03:12:02.048Z,87.52
2022-09-04T03:14:34.681Z,87.49
2022-09-04T03:17:12.151Z,87.87
2022-09-04T03:19:47.138Z,87.29
2022-09-04T03:22:23.000Z,87.52
2022-09-04T03:25:07.673Z,87.25
2022-09-04T03:27:36.365Z,87.65
2022-09-04T03:30:08.957Z,87.35
2022-09-04T03:32:47.947Z,87.59
2022-09-04T03:35:26.628Z,87.81
2022-09-04T03:38:09.045Z,87.08
2022-09-04T03:40:41.755Z,87.97
2022-09-04T03:43:31.823Z,87.37
2022-09-04T03:46:15.974Z,87.51
2022-09-04T03:49:07.971Z,87.22
2022-09-04T03:51:45.913Z,86.47
2022-09-04T03:54:32.369Z,87.42
2022-09-04T03:57:24.514Z,87.85
2022-09-04T04:00:08.502Z,87.09
2022-09-04T04:03:02.863Z,87.59
2022-09-04T04:05:45.815Z,87.57
2022-09-04T04:08:33.097Z,87.59
2022-09-04T04:11:19.667Z,87.01
2022-09-04T04:14:13.922Z,87.31
2022-09-04T04:16:56.292Z,86.99
2022-09-04T04:19:35.019Z,86.51
2022-09-04T04:22:28.905Z,86.80
2022-09-04T04:25:15.047Z,86.61
2022-09-04T04:27:54.771Z,87.39
2022-09-04T04:30:22.819Z,86.84
2022-09-04T04:33:14.544Z,86.90
2022-09-04T04:35:50.010Z,86.48
2022-09-04T04:38:40.425Z,86.80
2022-09-04T04:41:21.872Z,86.84
2022-09-04T04:44:00.636Z,86.48
2022-09-04T04:46:42.466Z,86.82
2022-09-04T04:49:28.571Z,87.04
2022-09-04T04:52:25.865Z,86.77
2022-09-04T04:55:11.918Z,86.94
2022-09-04T04:57:53.393Z,86.69
2022-09-04T05:00:27.703Z,86.62
2022-09-04T05:03:06.478Z,86.45
2022-09-04T05:05:52.746Z,86.63
2022-09-04T05:08:30.583Z,87.31
2022-09-04T05:11:07.655Z,86.55
2022-09-04T05:13:45.387Z,86.98
2022-09-04T05:16:22.938Z,86.69
2022-09-04T05:18:58.674Z,87.46
2022-09-04T05:21:37.130Z,87.41
2022-09-04T05:24:12.148Z,87.37
2022-09-04T05:26:47.412Z,86.86
2022-09-04T05:29:23.042Z,86.88
2022-09-04T05:31:57.001Z,87.31
2022-09-04T05:34:35.132Z,87.25
2022-09-04T05:37:13.647Z,87.45
2022-09-04T05:39:57.354Z,87.50
2022-09-04T05:42:54.584Z,88.00
2022-09-04T05:45:31.442Z,88.50
2022-09-04T05:48:11.831Z,88.70
2022-09-04T05:51:05.588Z,89.18
2022-09-04T05:54:08.314Z,89.40
2022-09-04T05:56:49.544Z,89.59
2022-09-04T05:59:55.592Z,89.53
2022-09-04T06:02:50.428Z,88.81
2022-09-04T06:05:30.673Z,88.93
2022-09-04T06:08:08.022Z,88.73
2022-09-04T06:10:53.691Z,88.68
2022-09-04T06:13:42.153Z,88.58
2022-09-04T06:16:40.552Z,87.80
2022-09-04T06:19:27.314Z,88.20
2022-09-04T06:22:14.302Z,88.46
2022-09-04T06:24:59.113Z,87.75
2022-09-04T06:27:46.172Z,87.14
2022-09-04T06:30:16.053Z,86.58
2022-09-04T06:33:23.407Z,87.33
2022-09-04T06:36:10.210Z,87.16
2022-09-04T06:38:53.307Z,86.10
2022-09-04T06:41:40.136Z,85.63
2022-09-04T06:44:25.264Z,86.05
2022-09-04T06:47:02.678Z,86.55
2022-09-04T06:49:46.527Z,85.65
2022-09-04T06:52:23.953Z,85.76
2022-09-04T06:55:00.458Z,85.27
2022-09-04T06:57:49.221Z,85.03
2022-09-04T07:00:20.008Z,85.27
2022-09-04T07:03:16.249Z,85.13
2022-09-04T07:05:54.517Z,84.42
2022-09-04T07:08:35.617Z,84.01
2022-09-04T07:11:16.078Z,83.78
2022-09-04T07:14:07.873Z,83.59
2022-09-04T07:16:41.778Z,83.26
2022-09-04T07:19:49.711Z,82.64
2022-09-04T07:22:38.563Z,82.76
2022-09-04T07:25:17.270Z,83.38
2022-09-04T07:27:59.046Z,82.77
2022-09-04T07:30:31.176Z,81.92
2022-09-04T07:33:03.737Z,82.44
2022-09-04T07:35:36.299Z,82.92
2022-09-04T07:38:17.559Z,82.79
2022-09-04T07:40:50.625Z,81.10
2022-09-04T07:43:24.202Z,80.82
2022-09-04T07:46:04.192Z,81.32
2022-09-04T07:48:38.367Z,80.80
2022-09-04T07:51:11.394Z,80.97
2022-09-04T07:54:04.246Z,80.01
2022-09-04T07:56:59.017Z,78.83
2022-09-04T07:59:50.353Z,79.48
2022-09-04T08:02:38.856Z,78.52
2022-09-04T08:05:23.097Z,78.18
2022-09-04T08:08:29.518Z,76.25
2022-09-04T08:11:37.067Z,75.65
2022-09-04T08:14:24.814Z,74.21
2022-09-04T08:17:05.564Z,72.94
2022-09-04T08:19:48.791Z,72.71
2022-09-04T08:22:28.357Z,72.89
2022-09-04T08:25:17.122Z,74.58
2022-09-04T08:28:06.217Z,74.34
2022-09-04T08:30:44.602Z,73.04
2022-09-04T08:33:30.808Z,72.61
2022-09-04T08:36:03.186Z,72.77
2022-09-04T08:38:55.511Z,72.90
2022-09-04T08:42:15.042Z,72.63
2022-09-04T08:45:42.071Z,71.92
2022-09-04T08:48:44.200Z,71.82
2022-09-04T08:51:57.898Z,71.78
2022-09-04T08:55:11.526Z,68.69
2022-09-04T08:58:01.732Z,68.77
2022-09-04T09:00:35.464Z,68.42
2022-09-04T09:03:41.893Z,69.14
2022-09-04T09:07:14.698Z,69.18
2022-09-04T09:10:15.169Z,67.43
2022-09-04T09:13:21.988Z,66.28
2022-09-04T09:16:02.279Z,66.51
2022-09-04T09:18:40.387Z,67.59
2022-09-04T09:21:11.538Z,66.61
2022-09-04T09:23:53.395Z,66.39
2022-09-04T09:26:28.264Z,66.40
2022-09-04T09:29:36.970Z,65.07
2022-09-04T09:32:37.062Z,65.82
2022-09-04T09:35:55.966Z,65.05
2022-09-04T09:39:03.010Z,64.73
2022-09-04T09:42:17.062Z,64.21
2022-09-04T09:45:24.143Z,65.32
2022-09-04T09:48:29.800Z,63.79
2022-09-04T09:51:18.582Z,62.53
2022-09-04T09:54:23.881Z,61.20
2022-09-04T09:57:33.554Z,62.07
2022-09-04T10:00:08.995Z,59.82
2022-09-04T10:03:07.483Z,60.54
2022-09-04T10:06:13.981Z,58.36
2022-09-04T10:09:09.601Z,57.74
2022-09-04T10:12:17.556Z,58.21
2022-09-04T10:15:14.196Z,57.79
2022-09-04T10:18:24.327Z,59.27
2022-09-04T10:21:33.943Z,57.95
2022-09-04T10:24:34.183Z,60.53
2022-09-04T10:27:57.599Z,57.75
2022-09-04T10:30:29.664Z,57.18
2022-09-04T10:33:26.339Z,57.43
2022-09-04T10:36:06.270Z,58.45
2022-09-04T10:39:00.456Z,57.32
2022-09-04T10:41:46.992Z,56.55
2022-09-04T10:44:41.972Z,56.93
2022-09-04T10:47:24.706Z,56.16
2022-09-04T10:50:18.259Z,56.59
2022-09-04T10:53:15.553Z,57.32
2022-09-04T10:56:18.230Z,56.47
2022-09-04T10:59:13.148Z,56.45
2022-09-04T11:02:03.498Z,57.23
2022-09-04T11:05:07.602Z,57.55
2022-09-04T11:07:55.844Z,58.39
2022-09-04T11:10:39.625Z,55.06
2022-09-04T11:13:51.414Z,55.68
2022-09-04T11:16:39.974Z,55.61
2022-09-04T11:19:52.313Z,57.12
2022-09-04T11:23:00.807Z,55.36
2022-09-04T11:26:02.941Z,56.39
2022-09-04T11:29:12.445Z,55.07
2022-09-04T11:32:12.193Z,55.04
2022-09-04T11:35:14.291Z,54.98
2022-09-04T11:38:00.975Z,56.30
2022-09-04T11:41:16.696Z,55.70
2022-09-04T11:44:20.086Z,54.68
2022-09-04T11:47:19.430Z,55.47
2022-09-04T11:50:16.571Z,54.92
2022-09-04T11:53:04.363Z,54.72
2022-09-04T11:55:43.557Z,54.55
2022-09-04T11:58:37.508Z,54.26
2022-09-04T12:01:24.099Z,52.63
2022-09-04T12:04:24.475Z,52.00
2022-09-04T12:07:13.555Z,52.11
2022-09-04T12:10:19.126Z,50.35
2022-09-04T12:13:15.187Z,51.34
2022-09-04T12:16:42.339Z,52.71
2022-09-04T12:19:53.756Z,51.99
2022-09-04T12:23:03.862Z,52.52
2022-09-04T12:26:03.676Z,52.98
2022-09-04T12:29:00.718Z,52.49
2022-09-04T12:32:00.641Z,52.33
2022-09-04T12:34:46.942Z,53.06
2022-09-04T12:37:36.633Z,53.73
2022-09-04T12:40:32.779Z,54.43
2022-09-04T12:43:24.188Z,53.94
2022-09-04T12:46:05.962Z,54.04
2022-09-04T12:48:42.726Z,53.61
2022-09-04T12:51:16.639Z,52.66
2022-09-04T12:54:04.846Z,53.72
2022-09-04T12:56:49.268Z,52.94
2022-09-04T12:59:46.331Z,55.07
2022-09-04T13:02:26.206Z,53.64
2022-09-04T13:05:03.984Z,54.73
2022-09-04T13:07:48.998Z,53.59
2022-09-04T13:10:25.341Z,52.32
2022-09-04T13:13:05.896Z,52.08
2022-09-04T13:15:47.112Z,52.42
2022-09-04T13:18:34.837Z,51.64
2022-09-04T13:21:14.654Z,51.21
2022-09-04T13:23:57.238Z,52.60
2022-09-04T13:26:38.701Z,51.86
2022-09-04T13:29:19.635Z,51.11
2022-09-04T13:32:05.354Z,51.57
2022-09-04T13:34:55.323Z,50.49
2022-09-04T13:37:29.335Z,50.78
2022-09-04T13:40:13.340Z,50.86
2022-09-04T13:43:03.388Z,48.98
2022-09-04T13:45:36.002Z,47.77
2022-09-04T13:48:12.073Z,48.52
2022-09-04T13:50:44.940Z,48.94
2022-09-04T13:53:18.356Z,49.31
2022-09-04T13:55:50.271Z,48.72
2022-09-04T13:58:20.837Z,49.26
2022-09-04T14:00:52.879Z,48.65
2022-09-04T14:03:34.382Z,47.57
2022-09-04T14:06:04.230Z,48.15
2022-09-04T14:08:34.731Z,48.11
2022-09-04T14:11:21.623Z,47.52
2022-09-04T14:14:18.598Z,47.44
2022-09-04T14:16:46.976Z,47.74
2022-09-04T14:19:50.769Z,47.39
2022-09-04T14:22:33.458Z,47.72
2022-09-04T14:25:12.317Z,47.40
2022-09-04T14:27:48.748Z,47.23
2022-09-04T14:30:19.611Z,49.39
2022-09-04T14:33:05.049Z,48.78
2022-09-04T14:35:46.880Z,48.89
2022-09-04T14:38:32.737Z,48.85
2022-09-04T14:41:18.316Z,48.98
2022-09-04T14:44:03.917Z,48.48
2022-09-04T14:46:38.362Z,48.56
2022-09-04T14:49:09.827Z,47.22
2022-09-04T14:51:43.669Z,47.27
2022-09-04T14:54:18.483Z,47.55
2022-09-04T14:56:49.668Z,47.61
2022-09-04T14:59:24.212Z,47.53
2022-09-04T15:02:14.815Z,47.79
2022-09-04T15:04:48.972Z,48.25
2022-09-04T15:07:29.682Z,49.41
2022-09-04T15:10:10.572Z,49.97
2022-09-04T15:12:43.467Z,47.30
2022-09-04T15:15:19.637Z,48.68
2022-09-04T15:17:53.429Z,49.13
2022-09-04T15:20:23.969Z,48.97
2022-09-04T15:22:58.248Z,49.39
2022-09-04T15:25:58.392Z,49.57
2022-09-04T15:28:34.542Z,50.20
2022-09-04T15:31:16.147Z,49.32
2022-09-04T15:33:46.588Z,49.54
2022-09-04T15:36:18.289Z,48.57
2022-09-04T15:38:52.287Z,49.69
2022-09-04T15:41:27.840Z,49.13
2022-09-04T15:44:02.368Z,48.97
2022-09-04T15:46:43.359Z,48.79
2022-09-04T15:49:24.546Z,49.55
2022-09-04T15:51:57.877Z,48.72
2022-09-04T15:54:55.741Z,49.10
2022-09-04T15:57:36.062Z,49.80
2022-09-04T16:00:11.420Z,48.58
2022-09-04T16:02:54.929Z,48.76
2022-09-04T16:05:32.360Z,48.53
2022-09-04T16:08:08.673Z,48.06
2022-09-04T16:10:54.461Z,49.19
2022-09-04T16:13:46.412Z,48.79
2022-09-04T16:16:20.252Z,48.76
2022-09-04T16:19:02.069Z,48.73
2022-09-04T16:21:40.603Z,48.84
2022-09-04T16:24:13.431Z,49.05
2022-09-04T16:26:48.561Z,47.81
2022-09-04T16:29:29.689Z,48.23
2022-09-04T16:31:59.509Z,48.90
2022-09-04T16:34:33.718Z,48.89
2022-09-04T16:37:12.428Z,48.08
2022-09-04T16:39:50.715Z,48.08
2022-09-04T16:42:25.412Z,49.16
2022-09-04T16:45:00.110Z,48.58
2022-09-04T16:47:37.228Z,49.07
2022-09-04T16:50:14.902Z,49.22
2022-09-04T16:53:12.514Z,48.44
2022-09-04T16:55:48.804Z,49.05
2022-09-04T16:58:39.950Z,48.56
2022-09-04T17:01:16.986Z,49.16
2022-09-04T17:04:12.742Z,48.92
2022-09-04T17:06:54.350Z,49.88
2022-09-04T17:09:28.535Z,49.52
2022-09-04T17:12:01.593Z,49.58
2022-09-04T17:14:37.585Z,49.43
2022-09-04T17:17:30.038Z,50.17
2022-09-04T17:20:05.208Z,49.47
2022-09-04T17:27:07.880Z,49.89
2022-09-04T17:29:08.800Z,50.66
2022-09-04T17:29:17.148Z,50.48
2022-09-04T17:31:33.291Z,50.56
2022-09-04T17:40:38.801Z,51.25
2022-09-04T17:40:50.560Z,51.36
2022-09-04T17:40:55.856Z,51.30
2022-09-04T17:43:15.843Z,52.24
2022-09-04T17:45:53.560Z,52.72
2022-09-04T17:48:25.586Z,53.61
2022-09-04T17:50:58.782Z,53.46
2022-09-04T17:53:34.498Z,53.56
2022-09-04T17:56:09.341Z,54.23
2022-09-04T17:58:44.125Z,54.67
2022-09-04T18:01:20.281Z,55.08
2022-09-04T18:04:20.010Z,55.23
2022-09-04T18:06:56.621Z,56.24
2022-09-04T18:09:32.044Z,56.78
2022-09-04T18:12:11.077Z,56.63
2022-09-04T18:14:50.142Z,57.16
2022-09-04T18:17:35.137Z,57.78
2022-09-04T18:20:19.282Z,57.90
2022-09-04T18:23:19.875Z,57.83
2022-09-04T18:25:52.399Z,58.29
2022-09-04T18:28:27.008Z,58.81
2022-09-04T18:37:11.981Z,58.82
2022-09-04T18:37:17.997Z,59.83
2022-09-04T18:37:44.693Z,60.00
2022-09-04T18:40:12.695Z,60.36
2022-09-04T18:50:20.952Z,60.59
2022-09-04T18:50:31.683Z,61.14
2022-09-04T18:50:37.436Z,61.21
2022-09-04T18:51:25.663Z,61.73
2022-09-04T18:53:59.947Z,61.65
2022-09-04T18:56:31.229Z,62.34
2022-09-04T18:59:05.406Z,62.10
2022-09-04T19:01:42.834Z,62.55
2022-09-04T19:04:36.001Z,62.38
2022-09-04T19:07:09.948Z,62.65
2022-09-04T19:09:59.974Z,62.54
2022-09-04T19:12:46.815Z,62.88
2022-09-04T19:15:48.828Z,63.26
2022-09-04T19:18:25.523Z,63.73
2022-09-04T19:21:07.694Z,63.66
2022-09-04T19:23:43.942Z,64.62
2022-09-04T19:26:24.021Z,65.12
2022-09-04T19:28:57.153Z,65.11
2022-09-04T19:31:30.409Z,64.74
2022-09-04T19:34:05.653Z,64.60
2022-09-04T19:36:38.618Z,64.85
2022-09-04T19:46:04.309Z,65.40
2022-09-04T19:46:13.204Z,65.88
2022-09-04T19:46:17.543Z,65.80
2022-09-04T19:48:21.481Z,66.36
2022-09-04T19:53:23.202Z,66.33
2022-09-04T19:53:52.787Z,66.53
2022-09-04T19:56:28.590Z,66.76
2022-09-04T19:59:05.475Z,66.64
2022-09-04T20:01:45.325Z,67.03
2022-09-04T20:04:26.082Z,67.00
2022-09-04T20:06:59.294Z,67.11
2022-09-04T20:09:33.153Z,67.11
2022-09-04T20:12:11.621Z,67.65
2022-09-04T20:14:47.018Z,69.05
2022-09-04T20:17:28.911Z,68.92
2022-09-04T20:20:03.179Z,68.79
2022-09-04T20:22:37.337Z,69.21
2022-09-04T20:25:24.504Z,69.44
2022-09-04T20:27:57.637Z,70.30
2022-09-04T20:30:27.248Z,69.44
2022-09-04T20:33:01.780Z,69.41
2022-09-04T20:35:36.336Z,68.94
2022-09-04T20:38:23.496Z,68.80
2022-09-04T20:40:59.437Z,69.60
2022-09-04T20:43:35.242Z,69.87
2022-09-04T20:50:10.358Z,68.99
2022-09-04T20:52:48.976Z,69.83
2022-09-04T20:52:49.484Z,69.11
2022-09-04T20:55:06.377Z,70.61
2022-09-04T21:01:49.436Z,69.51
2022-09-04T21:03:16.998Z,70.21
2022-09-04T21:03:56.432Z,70.28
2022-09-04T21:06:32.928Z,70.63
2022-09-04T21:09:25.678Z,71.20
2022-09-04T21:12:00.192Z,71.43
2022-09-04T21:14:45.206Z,70.88
2022-09-04T21:17:35.800Z,71.51
2022-09-04T21:20:23.219Z,71.92
2022-09-04T21:23:09.858Z,71.20
2022-09-04T21:25:51.577Z,71.67
2022-09-04T21:28:40.296Z,71.59
2022-09-04T21:31:24.003Z,72.03
2022-09-04T21:34:08.788Z,71.67
2022-09-04T21:36:42.337Z,71.91
2022-09-04T21:39:34.140Z,71.47
2022-09-04T21:42:31.006Z,72.16
2022-09-04T21:45:29.023Z,72.19
2022-09-04T21:48:23.521Z,71.92
2022-09-04T21:50:58.985Z,71.89
2022-09-04T21:56:18.074Z,71.75
2022-09-04T22:02:35.218Z,72.35
2022-09-04T22:02:39.909Z,72.71
2022-09-04T22:04:07.154Z,73.29
2022-09-04T22:08:54.743Z,73.45
2022-09-04T22:13:39.855Z,73.45
2022-09-04T22:13:43.097Z,73.21
2022-09-04T22:15:59.284Z,73.50
2022-09-04T22:18:47.289Z,73.16
2022-09-04T22:21:26.953Z,73.55
2022-09-04T22:24:27.387Z,73.50
2022-09-04T22:27:20.712Z,73.87
2022-09-04T22:29:59.799Z,73.55
2022-09-04T22:32:59.955Z,74.05
2022-09-04T22:35:52.323Z,74.10
2022-09-04T22:38:35.385Z,74.31
2022-09-04T22:41:42.294Z,75.19
2022-09-04T22:44:21.552Z,75.89
2022-09-04T22:47:27.463Z,76.06
2022-09-04T22:50:48.830Z,75.54
2022-09-04T22:53:33.994Z,75.08
2022-09-04T22:56:24.125Z,75.18
2022-09-04T22:59:27.490Z,75.11
2022-09-04T23:02:48.125Z,75.63
2022-09-04T23:05:36.466Z,75.99
2022-09-04T23:13:52.183Z,75.69
2022-09-04T23:14:00.385Z,75.70
2022-09-04T23:14:50.401Z,75.89
2022-09-04T23:17:35.628Z,76.04
2022-09-04T23:26:36.461Z,75.82
2022-09-04T23:26:46.442Z,76.16
2022-09-04T23:26:59.475Z,75.89
2022-09-04T23:29:46.387Z,76.15
2022-09-04T23:32:31.648Z,76.64
2022-09-04T23:35:15.689Z,76.62
2022-09-04T23:38:10.021Z,76.36
2022-09-04T23:40:44.669Z,76.48
2022-09-04T23:43:34.320Z,76.56
2022-09-04T23:46:18.111Z,76.55
2022-09-04T23:49:07.169Z,76.58
2022-09-04T23:51:44.120Z,77.03
2022-09-04T23:54:31.169Z,76.49
2022-09-04T23:57:08.546Z,76.53
